Time;durP1;ratioP1;P1;durP2;ratioP2;P2;SDS_P1;SDS_P2;PMS_P1;PMS_P2;Temp;Humidity;BMP_temperature;BMP_pressure;BME280_temperature;BME280_humidity;BME280_pressure;Samples;Min_cycle;Max_cycle;Signal;HPM_P1;HPM_P2
2020/12/06 00:00:17;;;;;;;22.85;16.85;;;;;;;;;;5125070;27;20030;-63
2020/12/06 00:02:43;;;;;;;21.20;16.90;;;;;;;;;;5105460;27;20074;-64
2020/12/06 00:05:10;;;;;;;23.33;16.88;;;;;;;;;;5125919;27;20080;-64
2020/12/06 00:07:39;;;;;;;23.60;15.93;;;;;;;;;;5121896;27;20023;-64
2020/12/06 00:10:09;;;;;;;23.85;17.63;;;;;;;;;;5126387;27;20061;-64
2020/12/06 00:12:39;;;;;;;28.63;17.65;;;;;;;;;;5125393;27;20023;-63
2020/12/06 00:15:07;;;;;;;20.05;16.10;;;;;;;;;;5126076;27;20448;-64
2020/12/06 00:17:33;;;;;;;22.10;16.42;;;;;;;;;;5122427;27;20038;-63
2020/12/06 00:19:58;;;;;;;21.38;16.98;;;;;;;;;;5126081;27;20042;-63
2020/12/06 00:22:23;;;;;;;21.48;16.52;;;;;;;;;;5123858;27;20119;-63
2020/12/06 00:24:49;;;;;;;23.83;17.30;;;;;;;;;;5124483;27;20031;-63
2020/12/06 00:27:14;;;;;;;24.17;16.75;;;;;;;;;;5122139;27;20061;-62
2020/12/06 00:29:40;;;;;;;20.15;15.77;;;;;;;;;;5126586;27;20035;-63
2020/12/06 00:32:05;;;;;;;27.33;18.58;;;;;;;;;;5125327;27;20113;-63
2020/12/06 00:34:30;;;;;;;23.63;17.55;;;;;;;;;;5123288;27;20049;-62
2020/12/06 00:36:56;;;;;;;21.08;17.23;;;;;;;;;;5124264;27;20031;-63
2020/12/06 00:39:21;;;;;;;22.27;16.98;;;;;;;;;;5110722;27;20122;-63
2020/12/06 00:41:46;;;;;;;22.58;17.25;;;;;;;;;;5122210;27;20121;-63
2020/12/06 00:44:12;;;;;;;23.00;17.67;;;;;;;;;;5125970;27;20047;-63
2020/12/06 00:46:37;;;;;;;25.67;18.30;;;;;;;;;;5124124;27;20035;-62
2020/12/06 00:49:03;;;;;;;22.02;16.88;;;;;;;;;;5126732;27;20031;-63
2020/12/06 00:51:28;;;;;;;22.40;18.00;;;;;;;;;;5123398;27;20077;-63
2020/12/06 00:53:53;;;;;;;28.60;17.88;;;;;;;;;;5123735;27;20465;-63
2020/12/06 00:56:19;;;;;;;30.92;19.08;;;;;;;;;;5126935;27;20027;-63
2020/12/06 00:58:46;;;;;;;26.77;18.63;;;;;;;;;;5122248;27;20035;-63
2020/12/06 01:01:12;;;;;;;25.83;18.05;;;;;;;;;;5124157;27;20035;-63
2020/12/06 01:03:38;;;;;;;23.95;18.80;;;;;;;;;;5123667;27;20039;-63
2020/12/06 01:06:08;;;;;;;26.67;18.88;;;;;;;;;;5126529;27;20031;-63
2020/12/06 01:08:34;;;;;;;23.48;18.90;;;;;;;;;;5123135;27;20030;-63
2020/12/06 01:11:00;;;;;;;25.13;18.35;;;;;;;;;;5122296;27;20484;-62
2020/12/06 01:13:25;;;;;;;23.02;18.50;;;;;;;;;;5120470;27;20067;-62
2020/12/06 01:15:50;;;;;;;26.85;19.10;;;;;;;;;;5124283;27;20456;-63
2020/12/06 01:18:15;;;;;;;30.63;21.08;;;;;;;;;;5123746;27;20068;-63
2020/12/06 01:20:41;;;;;;;26.58;19.25;;;;;;;;;;5107082;27;20088;-63
2020/12/06 01:23:07;;;;;;;27.35;20.25;;;;;;;;;;5125155;27;20039;-63
2020/12/06 01:25:32;;;;;;;25.33;19.88;;;;;;;;;;5125516;27;20031;-63
2020/12/06 01:27:57;;;;;;;25.13;19.98;;;;;;;;;;5121484;27;20039;-63
2020/12/06 01:30:23;;;;;;;25.45;19.50;;;;;;;;;;5106628;27;20027;-63
2020/12/06 01:32:48;;;;;;;27.55;18.92;;;;;;;;;;5105384;27;20035;-63
2020/12/06 01:35:13;;;;;;;24.20;19.23;;;;;;;;;;5125817;27;20110;-63
2020/12/06 01:37:39;;;;;;;26.88;20.40;;;;;;;;;;5122998;27;20027;-63
2020/12/06 01:40:04;;;;;;;30.48;21.63;;;;;;;;;;5121390;27;20050;-63
2020/12/06 01:42:29;;;;;;;30.48;21.58;;;;;;;;;;5122698;27;20118;-63
2020/12/06 01:44:58;;;;;;;26.63;20.75;;;;;;;;;;5124547;27;20041;-63
2020/12/06 01:47:27;;;;;;;26.50;20.55;;;;;;;;;;5123350;27;20046;-63
2020/12/06 01:49:56;;;;;;;27.00;19.45;;;;;;;;;;5124114;27;20032;-63
2020/12/06 01:52:22;;;;;;;24.83;19.63;;;;;;;;;;5123186;27;20035;-63
2020/12/06 01:54:49;;;;;;;32.35;21.45;;;;;;;;;;5118880;27;20042;-63
2020/12/06 01:57:14;;;;;;;26.73;20.42;;;;;;;;;;5122797;27;20039;-63
2020/12/06 01:59:40;;;;;;;28.70;21.55;;;;;;;;;;5122827;27;20610;-63
2020/12/06 02:02:06;;;;;;;25.90;20.33;;;;;;;;;;5124023;27;20373;-63
2020/12/06 02:04:32;;;;;;;28.15;20.13;;;;;;;;;;5122774;27;20092;-63
2020/12/06 02:06:58;;;;;;;24.08;19.85;;;;;;;;;;5123285;27;20035;-63
2020/12/06 02:09:28;;;;;;;26.30;20.25;;;;;;;;;;5123994;27;20509;-63
2020/12/06 02:11:54;;;;;;;28.40;21.05;;;;;;;;;;5120095;27;20034;-63
2020/12/06 02:14:19;;;;;;;29.58;21.23;;;;;;;;;;5106688;27;20027;-63
2020/12/06 02:16:45;;;;;;;26.67;20.60;;;;;;;;;;5120453;27;20131;-63
2020/12/06 02:19:11;;;;;;;26.48;20.17;;;;;;;;;;5125590;27;20445;-63
2020/12/06 02:21:39;;;;;;;22.77;18.35;;;;;;;;;;5121253;27;20132;-63
2020/12/06 02:24:09;;;;;;;26.25;19.83;;;;;;;;;;5123048;27;20116;-63
2020/12/06 02:26:42;;;;;;;24.80;19.10;;;;;;;;;;5122461;27;20028;-63
2020/12/06 02:29:08;;;;;;;23.48;18.55;;;;;;;;;;5122449;27;20360;-63
2020/12/06 02:31:34;;;;;;;24.90;18.80;;;;;;;;;;5121252;27;20035;-63
2020/12/06 02:34:00;;;;;;;24.35;19.30;;;;;;;;;;5122429;27;20035;-63
2020/12/06 02:36:25;;;;;;;24.15;18.23;;;;;;;;;;5124558;27;20373;-63
2020/12/06 02:38:51;;;;;;;25.73;19.00;;;;;;;;;;5119721;27;20054;-63
2020/12/06 02:41:17;;;;;;;22.20;16.73;;;;;;;;;;5121617;27;20028;-63
2020/12/06 02:43:42;;;;;;;23.02;17.65;;;;;;;;;;5122172;27;20062;-63
2020/12/06 02:46:08;;;;;;;24.88;17.58;;;;;;;;;;5123356;27;20051;-63
2020/12/06 02:48:34;;;;;;;27.13;18.77;;;;;;;;;;5120225;27;20027;-64
2020/12/06 02:50:59;;;;;;;20.92;16.90;;;;;;;;;;5123819;27;20062;-63
2020/12/06 02:53:24;;;;;;;25.95;17.05;;;;;;;;;;5105409;27;20516;-63
2020/12/06 02:55:50;;;;;;;24.95;17.55;;;;;;;;;;5123197;27;20041;-63
2020/12/06 02:58:15;;;;;;;23.02;17.27;;;;;;;;;;5116555;27;20472;-63
2020/12/06 03:00:40;;;;;;;22.00;16.92;;;;;;;;;;5122352;27;20043;-62
2020/12/06 03:03:06;;;;;;;22.50;17.35;;;;;;;;;;5122364;27;20039;-62
2020/12/06 03:05:31;;;;;;;22.67;17.27;;;;;;;;;;5107319;27;20035;-62
2020/12/06 03:07:56;;;;;;;22.75;17.58;;;;;;;;;;5121932;27;20032;-62
2020/12/06 03:10:21;;;;;;;20.92;16.25;;;;;;;;;;5105084;27;20042;-63
2020/12/06 03:12:47;;;;;;;20.23;17.00;;;;;;;;;;5120324;27;20019;-63
2020/12/06 03:15:12;;;;;;;26.40;16.38;;;;;;;;;;5122104;27;20042;-64
2020/12/06 03:17:37;;;;;;;21.05;16.65;;;;;;;;;;5123143;27;20047;-63
2020/12/06 03:20:03;;;;;;;22.92;16.55;;;;;;;;;;5122092;27;20032;-63
2020/12/06 03:22:32;;;;;;;22.80;17.75;;;;;;;;;;5120894;27;20096;-63
2020/12/06 03:24:58;;;;;;;20.48;17.05;;;;;;;;;;5121895;27;20027;-63
2020/12/06 03:27:24;;;;;;;21.27;16.83;;;;;;;;;;5119145;27;20076;-63
2020/12/06 03:29:49;;;;;;;23.73;17.65;;;;;;;;;;5122316;28;20420;-63
2020/12/06 03:32:14;;;;;;;25.40;18.80;;;;;;;;;;5117856;28;20023;-62
2020/12/06 03:34:40;;;;;;;22.60;17.40;;;;;;;;;;5122338;28;20035;-62
2020/12/06 03:37:06;;;;;;;24.30;17.58;;;;;;;;;;5121224;28;20031;-63
2020/12/06 03:39:31;;;;;;;22.83;16.90;;;;;;;;;;5122328;28;20069;-62
2020/12/06 03:41:56;;;;;;;21.60;16.65;;;;;;;;;;5120827;28;20451;-63
2020/12/06 03:44:22;;;;;;;21.27;16.50;;;;;;;;;;5122447;28;20089;-63
2020/12/06 03:46:47;;;;;;;22.48;17.52;;;;;;;;;;5121046;28;20031;-63
2020/12/06 03:49:12;;;;;;;24.92;16.50;;;;;;;;;;5122435;28;20045;-63
2020/12/06 03:51:38;;;;;;;21.48;15.93;;;;;;;;;;5122427;28;20030;-63
2020/12/06 03:54:03;;;;;;;20.95;15.82;;;;;;;;;;5120298;28;20493;-63
2020/12/06 03:56:28;;;;;;;18.63;16.20;;;;;;;;;;5121621;28;20366;-63
2020/12/06 03:58:54;;;;;;;23.00;16.67;;;;;;;;;;5102430;28;20474;-63
2020/12/06 04:01:19;;;;;;;21.33;17.02;;;;;;;;;;5123103;28;20039;-63
2020/12/06 04:03:44;;;;;;;26.23;17.55;;;;;;;;;;5120501;28;20035;-63
2020/12/06 04:06:10;;;;;;;21.98;16.95;;;;;;;;;;5120418;28;20121;-63
2020/12/06 04:08:35;;;;;;;20.50;15.52;;;;;;;;;;5120982;28;20372;-62
2020/12/06 04:11:00;;;;;;;18.83;15.77;;;;;;;;;;5121478;28;20118;-62
2020/12/06 04:13:26;;;;;;;21.80;15.48;;;;;;;;;;5121232;28;20039;-62
2020/12/06 04:15:51;;;;;;;24.65;16.65;;;;;;;;;;5112674;28;20067;-63
2020/12/06 04:18:16;;;;;;;18.00;15.43;;;;;;;;;;5122878;27;20054;-63
2020/12/06 04:20:41;;;;;;;23.85;18.08;;;;;;;;;;5126897;27;20095;-63
2020/12/06 04:23:07;;;;;;;20.73;16.48;;;;;;;;;;5121824;27;20027;-63
2020/12/06 04:25:32;;;;;;;22.17;17.17;;;;;;;;;;5126587;27;20388;-63
2020/12/06 04:27:57;;;;;;;23.48;16.90;;;;;;;;;;5124360;27;20666;-63
2020/12/06 04:30:23;;;;;;;21.05;17.45;;;;;;;;;;5124432;27;20023;-63
2020/12/06 04:32:48;;;;;;;22.70;16.80;;;;;;;;;;5123481;27;20656;-63
2020/12/06 04:35:13;;;;;;;27.92;17.90;;;;;;;;;;5124859;27;20040;-63
2020/12/06 04:37:39;;;;;;;24.67;18.92;;;;;;;;;;5124642;27;20038;-63
2020/12/06 04:40:04;;;;;;;22.45;17.30;;;;;;;;;;5122741;27;20039;-62
2020/12/06 04:42:30;;;;;;;22.88;16.88;;;;;;;;;;5124073;27;20038;-63
2020/12/06 04:44:56;;;;;;;19.60;15.63;;;;;;;;;;5125738;27;20415;-63
2020/12/06 04:47:40;;;;;;;20.02;16.45;;;;;;;;;;5122591;27;20122;-63
2020/12/06 04:50:08;;;;;;;22.63;16.52;;;;;;;;;;5125922;27;20042;-63
2020/12/06 04:52:42;;;;;;;25.02;17.95;;;;;;;;;;5106469;27;20176;-63
2020/12/06 04:55:11;;;;;;;22.00;17.33;;;;;;;;;;5124902;27;20031;-63
2020/12/06 04:57:37;;;;;;;19.15;16.05;;;;;;;;;;5122597;27;20457;-63
2020/12/06 05:00:12;;;;;;;21.92;17.40;;;;;;;;;;5124673;27;20027;-63
2020/12/06 05:02:40;;;;;;;25.98;16.80;;;;;;;;;;5123611;27;20038;-63
2020/12/06 05:05:07;;;;;;;20.88;17.38;;;;;;;;;;5122039;27;20582;-63
2020/12/06 05:07:33;;;;;;;26.00;17.40;;;;;;;;;;5123344;27;20050;-63
2020/12/06 05:09:59;;;;;;;21.02;17.30;;;;;;;;;;5123726;27;20028;-63
2020/12/06 05:12:25;;;;;;;22.42;17.52;;;;;;;;;;5123405;27;20039;-63
2020/12/06 05:14:50;;;;;;;21.27;16.70;;;;;;;;;;5107481;27;20036;-63
2020/12/06 05:17:16;;;;;;;21.25;16.23;;;;;;;;;;5125432;27;20031;-63
2020/12/06 05:19:41;;;;;;;24.90;16.48;;;;;;;;;;5123301;27;20054;-63
2020/12/06 05:22:07;;;;;;;19.75;16.27;;;;;;;;;;5124136;27;20122;-63
2020/12/06 05:24:33;;;;;;;22.27;17.25;;;;;;;;;;5125098;27;20046;-63
2020/12/06 05:26:59;;;;;;;22.10;17.33;;;;;;;;;;5123020;27;20031;-63
2020/12/06 05:29:24;;;;;;;22.50;17.15;;;;;;;;;;5125452;27;20058;-63
2020/12/06 05:31:49;;;;;;;26.95;17.05;;;;;;;;;;5117104;27;20038;-63
2020/12/06 05:34:18;;;;;;;26.85;18.63;;;;;;;;;;5125885;27;20262;-63
2020/12/06 05:36:44;;;;;;;21.90;17.75;;;;;;;;;;5121691;27;20035;-63
2020/12/06 05:39:10;;;;;;;22.52;16.95;;;;;;;;;;5122261;27;20049;-62
2020/12/06 05:41:35;;;;;;;24.00;16.90;;;;;;;;;;5124166;27;20122;-62
2020/12/06 05:44:03;;;;;;;22.95;17.10;;;;;;;;;;5105029;27;20031;-63
2020/12/06 05:46:35;;;;;;;23.45;17.90;;;;;;;;;;5125172;27;20429;-62
2020/12/06 05:49:03;;;;;;;21.13;16.60;;;;;;;;;;5120528;27;20130;-63
2020/12/06 05:51:29;;;;;;;22.38;17.52;;;;;;;;;;5124327;27;20352;-63
2020/12/06 05:53:56;;;;;;;19.98;15.27;;;;;;;;;;5121433;27;20036;-63
2020/12/06 05:56:22;;;;;;;22.25;16.60;;;;;;;;;;5123046;27;20092;-63
2020/12/06 05:58:50;;;;;;;26.58;16.48;;;;;;;;;;5121650;27;20380;-63
2020/12/06 06:01:16;;;;;;;21.92;16.23;;;;;;;;;;5124386;27;20027;-63
2020/12/06 06:03:53;;;;;;;21.17;16.63;;;;;;;;;;5122895;27;20123;-63
2020/12/06 06:06:25;;;;;;;19.35;15.52;;;;;;;;;;5122784;27;20106;-63
2020/12/06 06:08:53;;;;;;;25.13;16.83;;;;;;;;;;5122345;27;20468;-63
2020/12/06 06:11:24;;;;;;;22.33;17.92;;;;;;;;;;5122914;27;20422;-63
2020/12/06 06:14:01;;;;;;;20.75;15.88;;;;;;;;;;5121596;27;20046;-62
2020/12/06 06:16:29;;;;;;;22.77;15.55;;;;;;;;;;5124306;27;20149;-62
2020/12/06 06:18:56;;;;;;;21.52;17.63;;;;;;;;;;5119685;27;20114;-63
2020/12/06 06:21:33;;;;;;;23.08;17.38;;;;;;;;;;5124961;27;20035;-63
2020/12/06 06:24:02;;;;;;;20.20;16.85;;;;;;;;;;5121475;27;20059;-62
2020/12/06 06:26:32;;;;;;;27.20;16.88;;;;;;;;;;5123729;27;20035;-63
2020/12/06 06:28:57;;;;;;;23.15;17.45;;;;;;;;;;5119635;27;20073;-63
2020/12/06 06:31:23;;;;;;;23.80;17.25;;;;;;;;;;5122178;27;20401;-63
2020/12/06 06:33:50;;;;;;;23.52;18.67;;;;;;;;;;5120791;27;20035;-62
2020/12/06 06:36:19;;;;;;;22.15;16.70;;;;;;;;;;5122005;27;20061;-62
2020/12/06 06:38:45;;;;;;;23.92;17.15;;;;;;;;;;5118339;27;20468;-63
2020/12/06 06:41:12;;;;;;;20.45;17.55;;;;;;;;;;5120834;27;20039;-63
2020/12/06 06:43:38;;;;;;;26.25;17.45;;;;;;;;;;5120531;27;20042;-63
2020/12/06 06:46:15;;;;;;;22.00;17.08;;;;;;;;;;5121782;27;20110;-63
2020/12/06 06:48:45;;;;;;;22.27;17.13;;;;;;;;;;5117556;27;20167;-62
2020/12/06 06:51:17;;;;;;;24.85;18.38;;;;;;;;;;5121622;27;20406;-63
2020/12/06 06:53:42;;;;;;;21.42;16.92;;;;;;;;;;5119609;27;20031;-63
2020/12/06 06:56:08;;;;;;;24.75;17.15;;;;;;;;;;5120920;27;20508;-63
2020/12/06 06:58:35;;;;;;;26.27;17.80;;;;;;;;;;5121752;27;20030;-62
2020/12/06 07:01:29;;;;;;;20.98;17.70;;;;;;;;;;5123031;27;20058;-63
2020/12/06 07:03:55;;;;;;;21.75;17.23;;;;;;;;;;5081053;28;20046;-63
2020/12/06 07:06:46;;;;;;;21.77;17.48;;;;;;;;;;5122514;27;20023;-63
2020/12/06 07:09:14;;;;;;;24.60;17.92;;;;;;;;;;5117973;27;20119;-63
2020/12/06 07:11:40;;;;;;;24.35;18.50;;;;;;;;;;5119336;27;20039;-63
2020/12/06 07:14:06;;;;;;;24.73;18.27;;;;;;;;;;5120658;27;20084;-63
2020/12/06 07:16:31;;;;;;;22.40;17.52;;;;;;;;;;5123014;27;20426;-63
2020/12/06 07:18:57;;;;;;;20.10;17.17;;;;;;;;;;5119668;27;20027;-63
2020/12/06 07:21:22;;;;;;;25.88;18.58;;;;;;;;;;5117243;27;20059;-63
2020/12/06 07:23:49;;;;;;;25.25;18.83;;;;;;;;;;5119820;27;20035;-63
2020/12/06 07:26:14;;;;;;;22.35;17.42;;;;;;;;;;5123713;27;20090;-63
2020/12/06 07:28:40;;;;;;;30.25;19.10;;;;;;;;;;5119749;27;20457;-64
2020/12/06 07:31:05;;;;;;;33.00;21.98;;;;;;;;;;5119914;28;20059;-64
2020/12/06 07:33:31;;;;;;;28.27;21.02;;;;;;;;;;5116136;28;20034;-64
2020/12/06 07:35:56;;;;;;;29.48;20.30;;;;;;;;;;5122467;28;20034;-64
2020/12/06 07:38:21;;;;;;;27.88;18.67;;;;;;;;;;5119003;28;20065;-65
2020/12/06 07:40:47;;;;;;;26.25;20.77;;;;;;;;;;5121640;28;20039;-64
2020/12/06 07:43:13;;;;;;;29.67;20.90;;;;;;;;;;5118738;28;20380;-64
2020/12/06 07:45:39;;;;;;;26.80;20.90;;;;;;;;;;5122081;28;20083;-65
2020/12/06 07:48:05;;;;;;;28.75;20.40;;;;;;;;;;5120255;28;20461;-63
2020/12/06 07:50:30;;;;;;;25.85;19.83;;;;;;;;;;5119838;27;20103;-63
2020/12/06 07:53:02;;;;;;;26.05;19.83;;;;;;;;;;5120988;27;20114;-64
2020/12/06 07:55:27;;;;;;;27.42;20.25;;;;;;;;;;5122968;27;20050;-64
2020/12/06 07:57:56;;;;;;;31.20;21.20;;;;;;;;;;5122329;27;20460;-64
2020/12/06 08:00:28;;;;;;;27.25;20.35;;;;;;;;;;5121626;27;20047;-63
2020/12/06 08:02:57;;;;;;;25.75;20.05;;;;;;;;;;5123508;27;20035;-63
2020/12/06 08:05:25;;;;;;;24.23;19.45;;;;;;;;;;5120747;27;20031;-63
2020/12/06 08:08:21;;;;;;;27.33;20.92;;;;;;;;;;5119849;27;20051;-63
2020/12/06 08:10:51;;;;;;;28.90;20.58;;;;;;;;;;5108660;27;20480;-64
2020/12/06 08:13:17;;;;;;;25.77;19.45;;;;;;;;;;5105888;27;20042;-64
2020/12/06 08:15:43;;;;;;;30.50;21.40;;;;;;;;;;5126195;27;20035;-63
2020/12/06 08:18:12;;;;;;;29.08;20.90;;;;;;;;;;5121912;27;20106;-63
2020/12/06 08:20:38;;;;;;;26.70;20.08;;;;;;;;;;5124985;27;20046;-63
2020/12/06 08:23:03;;;;;;;24.83;19.40;;;;;;;;;;5105136;27;20457;-63
2020/12/06 08:25:31;;;;;;;28.38;22.10;;;;;;;;;;5125083;27;20067;-64
2020/12/06 08:27:58;;;;;;;28.08;20.80;;;;;;;;;;5124383;27;20036;-63
2020/12/06 08:30:25;;;;;;;28.85;20.45;;;;;;;;;;5124102;27;20452;-63
2020/12/06 08:32:59;;;;;;;28.10;21.17;;;;;;;;;;5125576;27;20051;-64
2020/12/06 08:35:44;;;;;;;26.08;20.52;;;;;;;;;;5107514;27;20046;-63
2020/12/06 08:38:23;;;;;;;27.83;21.13;;;;;;;;;;5125576;27;20031;-63
2020/12/06 08:40:59;;;;;;;29.55;20.20;;;;;;;;;;5124357;27;20039;-64
2020/12/06 08:43:38;;;;;;;25.92;18.85;;;;;;;;;;5124353;27;20028;-64
2020/12/06 08:46:08;;;;;;;28.23;20.92;;;;;;;;;;5126022;27;20038;-64
2020/12/06 08:48:33;;;;;;;24.73;20.10;;;;;;;;;;5105370;27;20071;-64
2020/12/06 08:50:58;;;;;;;27.58;21.95;;;;;;;;;;5123663;27;20027;-64
2020/12/06 08:53:24;;;;;;;32.72;21.80;;;;;;;;;;5123942;27;20027;-63
2020/12/06 08:55:49;;;;;;;28.33;20.77;;;;;;;;;;5124539;27;20176;-64
2020/12/06 08:58:28;;;;;;;27.20;20.05;;;;;;;;;;5123289;27;20034;-64
2020/12/06 09:00:53;;;;;;;28.00;20.27;;;;;;;;;;5111813;27;20035;-65
2020/12/06 09:03:19;;;;;;;28.60;19.08;;;;;;;;;;5101753;27;20038;-64
2020/12/06 09:05:47;;;;;;;27.95;20.05;;;;;;;;;;5122480;27;20046;-63
2020/12/06 09:08:12;;;;;;;29.15;19.85;;;;;;;;;;5122239;27;20039;-63
2020/12/06 09:10:38;;;;;;;32.97;19.17;;;;;;;;;;5124465;27;20521;-63
2020/12/06 09:13:03;;;;;;;23.63;19.08;;;;;;;;;;5123993;27;20040;-64
2020/12/06 09:15:28;;;;;;;30.65;19.60;;;;;;;;;;5124038;27;20380;-64
2020/12/06 09:17:53;;;;;;;31.70;20.38;;;;;;;;;;5121064;27;20404;-64
2020/12/06 09:20:19;;;;;;;28.38;20.85;;;;;;;;;;5112392;27;20035;-63
2020/12/06 09:22:44;;;;;;;26.58;20.08;;;;;;;;;;5121027;27;20062;-64
2020/12/06 09:25:09;;;;;;;26.35;20.67;;;;;;;;;;5123127;27;20084;-64
2020/12/06 09:27:35;;;;;;;26.05;19.90;;;;;;;;;;5107266;27;20027;-63
2020/12/06 09:30:00;;;;;;;30.42;20.77;;;;;;;;;;5123025;27;20046;-64
2020/12/06 09:32:25;;;;;;;36.53;21.20;;;;;;;;;;5121855;27;20816;-64
2020/12/06 09:34:51;;;;;;;30.42;20.13;;;;;;;;;;5124459;27;20043;-64
2020/12/06 09:37:17;;;;;;;25.67;20.58;;;;;;;;;;5108977;27;20456;-63
2020/12/06 09:39:43;;;;;;;28.17;20.98;;;;;;;;;;5124320;27;20031;-63
2020/12/06 09:42:08;;;;;;;29.67;21.42;;;;;;;;;;5122414;27;20046;-64
2020/12/06 09:44:33;;;;;;;29.15;21.17;;;;;;;;;;5123275;27;20084;-63
2020/12/06 09:46:59;;;;;;;26.25;22.10;;;;;;;;;;5124432;27;20027;-63
2020/12/06 09:49:24;;;;;;;30.50;22.40;;;;;;;;;;5124408;27;20020;-64
2020/12/06 09:51:49;;;;;;;27.83;22.23;;;;;;;;;;5123467;27;20091;-64
2020/12/06 09:54:14;;;;;;;29.02;21.95;;;;;;;;;;5123610;27;20029;-64
2020/12/06 09:56:40;;;;;;;27.90;21.38;;;;;;;;;;5124306;27;20129;-64
2020/12/06 09:59:05;;;;;;;31.52;22.83;;;;;;;;;;5124557;27;20164;-57
2020/12/06 10:01:31;;;;;;;31.20;22.23;;;;;;;;;;5108442;27;20472;-58
2020/12/06 10:03:56;;;;;;;33.38;22.70;;;;;;;;;;5122030;27;20039;-58
2020/12/06 10:06:25;;;;;;;26.63;21.30;;;;;;;;;;5124813;27;20139;-59
2020/12/06 10:08:51;;;;;;;27.25;22.23;;;;;;;;;;5121749;27;20050;-58
2020/12/06 10:11:16;;;;;;;25.25;22.13;;;;;;;;;;5124594;27;20030;-58
2020/12/06 10:13:42;;;;;;;32.30;23.50;;;;;;;;;;5120408;27;20031;-59
2020/12/06 10:16:07;;;;;;;27.17;22.60;;;;;;;;;;5125118;27;20058;-59
2020/12/06 10:18:32;;;;;;;29.95;23.77;;;;;;;;;;5121117;27;20421;-59
2020/12/06 10:20:58;;;;;;;31.95;23.33;;;;;;;;;;5119078;27;20715;-60
2020/12/06 10:23:23;;;;;;;30.90;25.27;;;;;;;;;;5117560;27;20031;-60
2020/12/06 10:25:48;;;;;;;30.48;22.73;;;;;;;;;;5123151;27;20172;-59
2020/12/06 10:28:14;;;;;;;35.45;27.90;;;;;;;;;;5122704;27;20121;-59
2020/12/06 10:30:39;;;;;;;34.50;23.85;;;;;;;;;;5123448;27;20028;-59
2020/12/06 10:33:04;;;;;;;35.67;24.95;;;;;;;;;;5108458;27;20042;-58
2020/12/06 10:35:30;;;;;;;37.75;24.85;;;;;;;;;;5122174;27;20942;-60
2020/12/06 10:37:55;;;;;;;30.27;22.92;;;;;;;;;;5121817;27;20122;-60
2020/12/06 10:40:20;;;;;;;33.78;24.05;;;;;;;;;;5121002;27;20031;-58
2020/12/06 10:42:46;;;;;;;32.83;23.45;;;;;;;;;;5118410;27;20047;-59
2020/12/06 10:45:12;;;;;;;36.63;23.88;;;;;;;;;;5123866;27;20054;-59
2020/12/06 10:47:37;;;;;;;36.97;24.10;;;;;;;;;;5117487;27;20488;-59
2020/12/06 10:50:03;;;;;;;33.13;24.10;;;;;;;;;;5124185;27;20397;-59
2020/12/06 10:52:28;;;;;;;32.42;23.13;;;;;;;;;;5120911;27;20034;-59
2020/12/06 10:54:55;;;;;;;30.65;21.77;;;;;;;;;;5122534;27;20039;-59
2020/12/06 10:57:20;;;;;;;28.58;22.83;;;;;;;;;;5120435;27;20031;-59
2020/12/06 10:59:45;;;;;;;34.63;27.48;;;;;;;;;;5120650;27;20027;-59
2020/12/06 11:02:11;;;;;;;31.98;20.80;;;;;;;;;;5121750;27;20407;-59
2020/12/06 11:04:36;;;;;;;30.30;22.60;;;;;;;;;;5120065;27;20027;-59
2020/12/06 11:07:01;;;;;;;28.45;21.75;;;;;;;;;;5122335;27;20444;-59
2020/12/06 11:09:27;;;;;;;28.77;21.55;;;;;;;;;;5120662;27;20039;-59
2020/12/06 11:11:52;;;;;;;24.05;19.45;;;;;;;;;;5105203;28;20036;-59
2020/12/06 11:14:18;;;;;;;26.13;20.50;;;;;;;;;;5121543;27;20035;-59
2020/12/06 11:16:44;;;;;;;26.70;21.10;;;;;;;;;;5120528;27;20376;-59
2020/12/06 11:19:09;;;;;;;29.88;21.20;;;;;;;;;;5119489;27;20035;-59
2020/12/06 11:21:34;;;;;;;27.67;20.30;;;;;;;;;;5122427;27;20039;-59
2020/12/06 11:24:00;;;;;;;28.55;21.50;;;;;;;;;;5117959;27;20038;-58
2020/12/06 11:26:25;;;;;;;29.20;21.42;;;;;;;;;;5088376;28;20030;-58
2020/12/06 11:28:50;;;;;;;24.50;19.00;;;;;;;;;;5123339;27;20035;-58
2020/12/06 11:31:16;;;;;;;27.90;21.15;;;;;;;;;;5123431;28;20105;-58
2020/12/06 11:33:44;;;;;;;27.08;19.52;;;;;;;;;;5121413;27;20046;-59
2020/12/06 11:36:10;;;;;;;25.50;20.45;;;;;;;;;;5109282;28;20444;-59
2020/12/06 11:38:36;;;;;;;28.10;19.73;;;;;;;;;;5119526;28;20126;-59
2020/12/06 11:41:02;;;;;;;25.27;20.35;;;;;;;;;;5116180;28;20342;-59
2020/12/06 11:43:27;;;;;;;29.77;19.50;;;;;;;;;;5117225;28;20031;-60
2020/12/06 11:45:52;;;;;;;27.58;20.88;;;;;;;;;;5114447;28;20084;-58
2020/12/06 11:48:18;;;;;;;27.88;21.33;;;;;;;;;;5113761;28;20459;-58
2020/12/06 11:50:45;;;;;;;26.23;19.48;;;;;;;;;;5120751;28;20054;-59
2020/12/06 11:53:10;;;;;;;29.42;20.42;;;;;;;;;;5120850;28;20036;-59
2020/12/06 11:55:36;;;;;;;36.25;27.75;;;;;;;;;;5118851;28;20039;-60
2020/12/06 11:58:01;;;;;;;34.30;25.50;;;;;;;;;;5103723;28;20050;-59
2020/12/06 12:00:27;;;;;;;36.10;26.40;;;;;;;;;;5120529;28;20035;-60
2020/12/06 12:02:52;;;;;;;29.77;24.00;;;;;;;;;;5112831;28;20028;-60
2020/12/06 12:05:17;;;;;;;25.23;21.27;;;;;;;;;;5097640;28;20365;-59
2020/12/06 12:07:43;;;;;;;29.15;22.63;;;;;;;;;;5097804;28;20080;-59
2020/12/06 12:10:08;;;;;;;24.38;18.88;;;;;;;;;;5117408;28;20058;-59
2020/12/06 12:12:35;;;;;;;33.75;22.52;;;;;;;;;;5102452;28;20199;-59
2020/12/06 12:15:00;;;;;;;32.22;22.58;;;;;;;;;;5121610;28;20032;-59
2020/12/06 12:17:26;;;;;;;28.48;19.27;;;;;;;;;;5122079;28;20035;-59
2020/12/06 12:19:51;;;;;;;24.77;19.23;;;;;;;;;;5117686;28;20046;-59
2020/12/06 12:22:20;;;;;;;22.05;18.05;;;;;;;;;;5118689;28;20031;-59
2020/12/06 12:24:46;;;;;;;24.45;17.85;;;;;;;;;;5121414;28;20030;-60
2020/12/06 12:27:12;;;;;;;26.52;18.48;;;;;;;;;;5104237;28;20027;-59
2020/12/06 12:29:37;;;;;;;21.83;16.92;;;;;;;;;;5120395;28;20411;-60
2020/12/06 12:32:02;;;;;;;28.17;18.45;;;;;;;;;;5122189;28;20683;-59
2020/12/06 12:34:28;;;;;;;23.13;18.48;;;;;;;;;;5117140;28;20073;-60
2020/12/06 12:36:53;;;;;;;25.35;18.90;;;;;;;;;;5120340;27;20043;-59
2020/12/06 12:39:18;;;;;;;24.20;18.90;;;;;;;;;;5109292;27;20118;-60
2020/12/06 12:41:44;;;;;;;22.83;17.92;;;;;;;;;;5125313;27;20100;-60
2020/12/06 12:44:09;;;;;;;25.85;19.25;;;;;;;;;;5109293;27;20034;-60
2020/12/06 12:46:35;;;;;;;26.05;18.70;;;;;;;;;;5123867;27;20118;-60
2020/12/06 12:49:02;;;;;;;23.65;18.60;;;;;;;;;;5121176;27;20031;-60
2020/12/06 12:51:27;;;;;;;24.27;17.55;;;;;;;;;;5124891;27;20535;-60
2020/12/06 12:53:53;;;;;;;27.35;19.05;;;;;;;;;;5104877;27;20039;-59
2020/12/06 12:56:19;;;;;;;26.83;18.88;;;;;;;;;;5125551;27;20126;-60
2020/12/06 12:58:44;;;;;;;23.13;18.33;;;;;;;;;;5123315;27;20114;-60
2020/12/06 13:01:10;;;;;;;24.23;19.02;;;;;;;;;;5109893;27;20055;-60
2020/12/06 13:03:35;;;;;;;25.88;18.35;;;;;;;;;;5121895;27;20051;-60
2020/12/06 13:06:00;;;;;;;23.38;18.02;;;;;;;;;;5123867;27;20410;-60
2020/12/06 13:08:26;;;;;;;26.77;18.52;;;;;;;;;;5123277;27;20453;-59
2020/12/06 13:10:51;;;;;;;27.50;19.33;;;;;;;;;;5122306;27;20031;-58
2020/12/06 13:13:16;;;;;;;22.83;18.83;;;;;;;;;;5123589;27;20042;-59
2020/12/06 13:15:42;;;;;;;29.38;20.10;;;;;;;;;;5124699;27;20066;-59
2020/12/06 13:18:07;;;;;;;24.80;18.60;;;;;;;;;;5122444;27;20350;-59
2020/12/06 13:20:32;;;;;;;25.33;18.60;;;;;;;;;;5121261;27;20034;-59
2020/12/06 13:22:58;;;;;;;30.83;23.88;;;;;;;;;;5120598;27;20043;-59
2020/12/06 13:25:23;;;;;;;30.30;23.23;;;;;;;;;;5124027;27;20038;-59
2020/12/06 13:27:49;;;;;;;24.45;19.40;;;;;;;;;;5122078;27;20035;-60
2020/12/06 13:30:14;;;;;;;24.48;18.65;;;;;;;;;;5124564;27;20027;-60
2020/12/06 13:32:39;;;;;;;26.80;18.70;;;;;;;;;;5123086;27;20514;-60
2020/12/06 13:35:05;;;;;;;23.23;18.15;;;;;;;;;;5121138;27;20039;-59
2020/12/06 13:37:30;;;;;;;23.85;19.02;;;;;;;;;;5123344;27;20392;-61
2020/12/06 13:39:55;;;;;;;26.00;19.60;;;;;;;;;;5120649;27;20032;-61
2020/12/06 13:42:21;;;;;;;26.63;17.67;;;;;;;;;;5120885;27;20043;-60
2020/12/06 13:44:46;;;;;;;22.23;16.73;;;;;;;;;;5119158;27;20027;-60
2020/12/06 13:47:12;;;;;;;23.77;17.77;;;;;;;;;;5123715;27;20031;-60
2020/12/06 13:49:40;;;;;;;23.73;18.25;;;;;;;;;;5120194;27;20027;-60
2020/12/06 13:52:10;;;;;;;27.13;18.55;;;;;;;;;;5123036;27;20031;-60
2020/12/06 13:54:35;;;;;;;20.50;17.73;;;;;;;;;;5107207;27;20035;-60
2020/12/06 13:57:01;;;;;;;25.88;18.30;;;;;;;;;;5092589;27;20047;-59
2020/12/06 13:59:26;;;;;;;21.55;16.77;;;;;;;;;;5123399;27;20046;-59
2020/12/06 14:01:52;;;;;;;21.67;16.33;;;;;;;;;;5124312;27;20038;-59
2020/12/06 14:04:17;;;;;;;24.50;17.35;;;;;;;;;;5120799;27;20027;-59
2020/12/06 14:06:42;;;;;;;23.00;17.42;;;;;;;;;;5122949;27;20042;-58
2020/12/06 14:09:08;;;;;;;25.33;18.02;;;;;;;;;;5121680;27;20457;-59
2020/12/06 14:11:33;;;;;;;25.92;18.05;;;;;;;;;;5123873;27;20467;-59